Time;durP1;ratioP1;P1;durP2;ratioP2;P2;SDS_P1;SDS_P2;PMS_P1;PMS_P2;Temp;Humidity;BMP_temperature;BMP_pressure;BME280_temperature;BME280_humidity;BME280_pressure;Samples;Min_cycle;Max_cycle;Signal;HPM_P1;HPM_P2
2021/05/20 17:57:29;;;;;;;2.33;0.80;;;;;;;25.17;14.95;99970.72;4969249;27;20428;-57
2021/05/20 18:00:11;;;;;;;0.98;0.55;;;;;;;24.63;15.63;99978.25;3865452;28;31200381;-58
2021/05/20 18:02:39;;;;;;;3.85;0.80;;;;;;;24.33;15.53;99988.81;4979693;28;20062;-57
2021/05/20 18:05:07;;;;;;;1.55;0.95;;;;;;;24.24;16.17;99984.25;4990406;28;20030;-57
2021/05/20 18:07:33;;;;;;;1.45;0.82;;;;;;;24.04;16.79;99988.69;4992589;28;20060;-57
2021/05/20 18:09:59;;;;;;;2.30;0.90;;;;;;;24.19;16.07;99986.50;4995927;28;20714;-56
2021/05/20 18:15:17;;;;;;;1.90;0.70;;;;;;;23.72;15.93;99983.38;4989069;28;20052;-57
2021/05/20 18:23:25;;;;;;;3.03;0.90;;;;;;;23.50;15.77;99984.34;4989409;28;20054;-58
2021/05/20 18:25:51;;;;;;;1.92;1.00;;;;;;;23.40;16.84;99985.13;4992609;28;20049;-56
2021/05/20 18:28:17;;;;;;;2.03;0.90;;;;;;;23.18;17.13;99980.72;5011096;28;20042;-58
2021/05/20 18:30:47;;;;;;;1.48;0.73;;;;;;;23.20;17.83;99993.94;4995666;28;20026;-58
2021/05/20 18:33:14;;;;;;;3.38;1.15;;;;;;;23.14;18.40;99994.44;5011915;28;20034;-58
2021/05/20 18:35:40;;;;;;;2.92;0.85;;;;;;;22.99;17.33;99992.03;5023945;28;20097;-58
2021/05/20 18:38:06;;;;;;;3.00;0.90;;;;;;;22.97;17.24;99999.31;5007308;28;20441;-58
2021/05/20 18:40:34;;;;;;;1.48;0.90;;;;;;;22.85;18.30;99995.84;5009520;28;20053;-58
2021/05/20 18:42:59;;;;;;;1.60;1.00;;;;;;;22.71;19.25;99988.09;4999604;28;20560;-58
2021/05/20 18:45:25;;;;;;;2.60;1.00;;;;;;;22.74;19.47;99995.03;4997821;28;20034;-55
2021/05/20 18:47:51;;;;;;;4.43;1.40;;;;;;;22.66;18.87;99996.47;5012322;28;20390;-58
2021/05/20 18:50:25;;;;;;;1.73;0.90;;;;;;;22.55;19.70;99998.31;4995354;28;20045;-57
2021/05/20 18:52:54;;;;;;;4.00;0.93;;;;;;;22.49;22.32;99997.00;4998683;28;20034;-56
2021/05/20 18:55:20;;;;;;;1.88;0.88;;;;;;;22.32;25.46;100001.81;4995894;28;20035;-57
2021/05/20 18:57:47;;;;;;;2.60;1.10;;;;;;;22.19;22.79;100010.88;4990874;28;20129;-57
2021/05/20 19:00:21;;;;;;;5.68;1.02;;;;;;;22.05;26.71;100017.28;4998488;28;20026;-57
2021/05/20 19:02:47;;;;;;;3.25;1.10;;;;;;;21.95;20.05;100015.34;4994194;28;20061;-59
2021/05/20 19:05:31;;;;;;;1.73;0.95;;;;;;;21.89;19.55;100014.97;5002485;28;20030;-58
2021/05/20 19:08:15;;;;;;;2.30;0.85;;;;;;;21.96;20.78;100014.34;4991364;28;20062;-58
2021/05/20 19:10:44;;;;;;;1.55;0.93;;;;;;;21.87;22.35;100020.41;4988846;28;20041;-58
2021/05/20 19:13:10;;;;;;;2.33;0.95;;;;;;;21.58;24.09;100026.13;4990509;28;20341;-57
2021/05/20 19:15:43;;;;;;;5.70;1.27;;;;;;;21.57;22.78;100021.75;4997020;28;20028;-58
2021/05/20 19:18:13;;;;;;;2.50;1.20;;;;;;;21.53;23.08;100028.31;4989214;28;20035;-59
2021/05/20 19:20:42;;;;;;;2.60;1.25;;;;;;;21.46;21.69;100028.84;4997039;28;20058;-58
2021/05/20 19:23:09;;;;;;;3.92;1.20;;;;;;;21.39;20.67;100025.78;4985354;28;20469;-57
2021/05/20 19:25:36;;;;;;;1.50;0.90;;;;;;;21.37;22.10;100033.03;4991747;28;20037;-59
2021/05/20 19:28:03;;;;;;;3.42;1.20;;;;;;;21.30;23.51;100037.97;4989652;28;20026;-58
2021/05/20 19:30:35;;;;;;;2.35;1.10;;;;;;;21.28;20.97;100039.88;4990294;28;20035;-57
2021/05/20 19:33:01;;;;;;;2.13;0.90;;;;;;;21.26;20.96;100038.31;5004042;28;20037;-58
2021/05/20 19:35:27;;;;;;;5.07;0.90;;;;;;;21.13;20.28;100039.22;4981279;28;20034;-58
2021/05/20 19:37:54;;;;;;;2.15;0.90;;;;;;;21.18;20.29;100039.72;4981757;28;20022;-58
2021/05/20 19:40:22;;;;;;;2.25;1.00;;;;;;;21.30;20.49;100037.09;4984144;28;20114;-57
2021/05/20 19:42:52;;;;;;;3.38;1.00;;;;;;;21.20;21.26;100048.47;4983904;28;20022;-58
2021/05/20 19:45:19;;;;;;;2.28;0.80;;;;;;;21.11;22.13;100051.78;4977933;28;20031;-58
2021/05/20 19:47:46;;;;;;;2.65;0.85;;;;;;;21.09;21.10;100047.53;4989509;28;20030;-58
2021/05/20 19:50:15;;;;;;;1.67;0.90;;;;;;;21.02;22.49;100055.13;4985581;28;20019;-58
2021/05/20 19:52:47;;;;;;;2.08;1.00;;;;;;;20.90;22.44;100067.50;4987295;28;20035;-59
2021/05/20 20:00:56;;;;;;;3.00;1.20;;;;;;;20.70;21.91;100084.91;4983832;28;20153;-58
2021/05/20 20:03:29;;;;;;;1.98;1.13;;;;;;;20.73;22.57;100090.00;4983838;28;20470;-60
2021/05/20 20:10:57;;;;;;;4.20;1.38;;;;;;;20.51;24.05;100094.13;4988019;28;20019;-60
2021/05/20 20:13:27;;;;;;;3.28;1.20;;;;;;;20.39;27.63;100092.34;4989586;28;20027;-60
2021/05/20 20:15:53;;;;;;;2.20;1.08;;;;;;;20.36;24.29;100102.34;4987604;28;20042;-58
2021/05/20 20:18:24;;;;;;;3.50;1.00;;;;;;;20.29;27.30;100094.78;4986053;28;20031;-59
2021/05/20 20:20:59;;;;;;;3.22;0.90;;;;;;;20.21;23.33;100091.78;5014938;28;20605;-57
2021/05/20 20:23:29;;;;;;;3.20;1.00;;;;;;;20.14;25.51;100099.34;4998699;28;20031;-60
2021/05/20 20:28:44;;;;;;;2.38;1.45;;;;;;;19.72;31.93;100109.22;4982588;28;20046;-58
2021/05/20 20:31:09;;;;;;;5.25;1.40;;;;;;;19.73;28.95;100104.72;4987008;28;20027;-59
2021/05/20 20:33:50;;;;;;;2.92;1.50;;;;;;;19.55;29.36;100114.75;4982530;28;20398;-59
2021/05/20 20:36:17;;;;;;;2.47;1.20;;;;;;;19.59;26.07;100126.91;4980783;28;20034;-58
2021/05/20 20:41:29;;;;;;;1.67;0.85;;;;;;;19.62;26.29;100121.38;4995638;28;20046;-58
2021/05/20 20:43:57;;;;;;;2.08;0.80;;;;;;;19.63;25.40;100124.91;4990958;28;20033;-59
2021/05/20 20:46:23;;;;;;;1.40;0.75;;;;;;;19.76;25.31;100128.47;4987571;28;20045;-59
2021/05/20 20:48:50;;;;;;;3.55;1.08;;;;;;;19.67;25.21;100119.28;4980560;28;20050;-59
2021/05/20 20:51:18;;;;;;;3.28;0.73;;;;;;;19.60;25.46;100126.81;4983225;28;20031;-60
2021/05/20 20:53:45;;;;;;;1.52;0.85;;;;;;;19.72;25.54;100126.94;4999724;28;20037;-59
2021/05/20 20:56:17;;;;;;;3.70;0.80;;;;;;;19.67;25.84;100134.34;4983230;28;20390;-58
2021/05/20 20:58:44;;;;;;;1.27;0.75;;;;;;;19.71;25.73;100134.06;4990412;28;20040;-58
2021/05/20 21:01:10;;;;;;;1.58;0.80;;;;;;;19.66;26.09;100137.97;4988944;28;20022;-58
2021/05/20 21:03:36;;;;;;;4.03;1.10;;;;;;;19.58;26.21;100144.63;4985696;28;20034;-58
2021/05/20 21:06:05;;;;;;;2.63;0.98;;;;;;;19.60;26.73;100150.72;4996189;28;20033;-58
2021/05/20 21:08:31;;;;;;;3.13;0.85;;;;;;;19.50;26.60;100154.91;5004289;28;20030;-58
2021/05/20 21:11:00;;;;;;;3.42;1.00;;;;;;;19.48;26.61;100143.53;5001064;28;20433;-59
2021/05/20 21:13:25;;;;;;;4.57;1.20;;;;;;;19.39;27.23;100149.44;4980235;28;20037;-59
2021/05/20 21:15:52;;;;;;;1.52;1.25;;;;;;;19.45;27.40;100150.84;5000621;28;20027;-59
2021/05/20 21:18:18;;;;;;;3.15;1.00;;;;;;;19.36;27.70;100144.31;4985096;28;20120;-59
2021/05/20 21:20:44;;;;;;;1.35;0.90;;;;;;;19.31;28.10;100139.31;4988865;28;20026;-58
2021/05/20 21:23:11;;;;;;;3.08;0.73;;;;;;;19.27;28.13;100145.75;4988200;28;20057;-58
2021/05/20 21:25:36;;;;;;;1.85;1.30;;;;;;;19.37;28.01;100144.22;4985614;28;20054;-58
2021/05/20 21:28:02;;;;;;;2.25;0.80;;;;;;;19.23;28.34;100141.59;4981309;28;20140;-58
2021/05/20 21:30:28;;;;;;;2.08;0.85;;;;;;;19.13;28.50;100145.78;5002805;28;20027;-58
2021/05/20 21:32:54;;;;;;;1.77;0.90;;;;;;;19.02;28.88;100146.47;5010783;28;20395;-58
2021/05/20 21:35:20;;;;;;;0.90;0.60;;;;;;;18.99;29.17;100150.16;4981251;28;20064;-59
2021/05/20 21:37:46;;;;;;;1.55;0.90;;;;;;;18.92;29.23;100159.47;4987336;28;20105;-58
2021/05/20 21:40:12;;;;;;;3.13;0.70;;;;;;;18.82;29.41;100148.53;4984363;28;20021;-58
2021/05/20 21:42:38;;;;;;;1.73;0.82;;;;;;;18.82;29.70;100145.00;4988082;28;20034;-58
2021/05/20 21:45:05;;;;;;;3.55;0.80;;;;;;;18.65;29.96;100146.06;4982317;28;20030;-58
2021/05/20 21:47:32;;;;;;;1.83;0.98;;;;;;;18.72;30.20;100141.22;4998092;28;20046;-58
2021/05/20 21:49:57;;;;;;;1.52;0.73;;;;;;;18.78;30.18;100151.47;4983330;28;20021;-58
2021/05/20 21:52:23;;;;;;;4.93;0.93;;;;;;;18.61;30.60;100150.69;4983498;28;20034;-58
2021/05/20 21:54:49;;;;;;;2.15;0.63;;;;;;;18.62;30.43;100146.22;4983199;28;20240;-58
2021/05/20 21:57:14;;;;;;;2.05;0.75;;;;;;;18.56;30.66;100152.78;4997412;28;20051;-57
2021/05/20 21:59:40;;;;;;;2.50;0.85;;;;;;;18.54;30.73;100144.03;4987287;28;20050;-59
2021/05/20 22:02:06;;;;;;;1.10;0.93;;;;;;;18.45;31.05;100153.41;4981224;28;20029;-60
2021/05/20 22:04:32;;;;;;;4.22;0.90;;;;;;;18.38;31.78;100160.00;4983264;28;20120;-58
2021/05/20 22:06:59;;;;;;;1.15;0.77;;;;;;;18.35;31.08;100154.91;4984542;28;20105;-58
2021/05/20 22:09:37;;;;;;;1.75;0.85;;;;;;;18.25;33.80;100156.38;4980895;28;20027;-58
2021/05/20 22:17:17;;;;;;;2.60;0.80;;;;;;;17.56;38.46;100169.13;4996398;28;20142;-58
2021/05/20 22:19:43;;;;;;;2.22;1.20;;;;;;;17.30;39.80;100179.38;4978647;28;20050;-58
2021/05/20 22:22:10;;;;;;;1.38;0.80;;;;;;;17.04;40.90;100175.50;4992853;28;20046;-56
2021/05/20 22:24:42;;;;;;;2.90;1.42;;;;;;;17.11;40.62;100181.31;4980835;28;20037;-57
2021/05/20 22:34:33;;;;;;;3.08;0.80;;;;;;;16.35;43.79;100182.56;4978105;28;20030;-57
2021/05/20 22:36:59;;;;;;;1.08;0.60;;;;;;;16.34;43.91;100186.13;4982769;28;20461;-57
2021/05/20 22:39:25;;;;;;;1.58;0.60;;;;;;;16.19;44.45;100171.91;4981610;28;20093;-59
2021/05/20 22:41:51;;;;;;;1.17;0.70;;;;;;;16.23;44.14;100183.19;4975674;28;20023;-57
2021/05/20 22:44:17;;;;;;;1.13;0.70;;;;;;;15.93;44.27;100186.41;4989330;28;20037;-58
2021/05/20 22:46:43;;;;;;;1.75;0.70;;;;;;;15.99;44.47;100191.41;4983898;28;20034;-56
2021/05/20 22:49:08;;;;;;;2.00;0.70;;;;;;;16.02;44.13;100185.97;4986037;28;20030;-58
2021/05/20 22:51:34;;;;;;;1.20;0.70;;;;;;;16.20;37.15;100181.56;4992560;28;20110;-57
2021/05/20 22:54:00;;;;;;;0.93;0.60;;;;;;;16.03;43.59;100192.94;5004990;28;20065;-57
2021/05/20 22:56:25;;;;;;;2.17;0.68;;;;;;;15.74;45.58;100183.78;4987026;28;20113;-57
2021/05/20 22:58:51;;;;;;;4.47;0.80;;;;;;;15.65;45.19;100186.88;4986649;28;20077;-57
2021/05/20 23:01:17;;;;;;;1.83;0.75;;;;;;;15.86;40.73;100188.50;4980925;28;20031;-58
2021/05/20 23:03:42;;;;;;;1.95;0.70;;;;;;;15.89;41.84;100184.84;4982231;28;20030;-57
2021/05/20 23:06:08;;;;;;;2.03;0.70;;;;;;;15.55;44.87;100197.00;4980542;28;20077;-57
2021/05/20 23:08:33;;;;;;;1.60;0.70;;;;;;;15.53;43.12;100190.94;4990115;28;20077;-57
2021/05/20 23:10:59;;;;;;;0.60;0.57;;;;;;;15.46;45.29;100193.00;4987923;28;20026;-57
2021/05/20 23:13:25;;;;;;;1.45;0.60;;;;;;;15.48;45.66;100199.09;4989602;28;20059;-58
2021/05/20 23:15:51;;;;;;;1.67;0.80;;;;;;;15.55;45.33;100197.00;4990901;28;20417;-57
2021/05/20 23:18:16;;;;;;;1.65;0.80;;;;;;;15.51;45.45;100201.56;4994486;28;20031;-58
2021/05/20 23:20:43;;;;;;;1.85;0.80;;;;;;;15.70;40.62;100185.72;4994963;28;20343;-58
2021/05/20 23:23:12;;;;;;;0.88;0.60;;;;;;;15.49;46.58;100189.38;4994616;28;20084;-58
2021/05/20 23:25:38;;;;;;;2.08;0.90;;;;;;;15.55;42.76;100178.53;4994353;28;20049;-59
2021/05/20 23:28:04;;;;;;;2.83;0.90;;;;;;;15.30;47.56;100187.59;4994748;28;20454;-58
2021/05/20 23:30:30;;;;;;;1.15;0.80;;;;;;;15.28;48.14;100196.50;4994892;28;20037;-59
2021/05/20 23:32:55;;;;;;;1.50;0.90;;;;;;;15.22;46.84;100195.00;4994715;28;20093;-58
2021/05/20 23:35:21;;;;;;;1.92;0.63;;;;;;;14.85;46.99;100199.31;4995014;28;20034;-58
2021/05/20 23:37:47;;;;;;;2.35;1.00;;;;;;;15.23;37.66;100196.72;4993241;28;20038;-57
2021/05/20 23:40:13;;;;;;;3.17;1.02;;;;;;;15.28;44.06;100207.91;4994332;28;20359;-57
2021/05/20 23:42:42;;;;;;;1.33;0.98;;;;;;;15.18;44.87;100194.28;4994285;28;20030;-57
2021/05/20 23:45:09;;;;;;;1.65;0.90;;;;;;;15.21;45.64;100194.16;4994685;28;20062;-58
2021/05/20 23:47:34;;;;;;;2.13;0.95;;;;;;;15.24;45.29;100189.66;4994223;28;20034;-58
2021/05/20 23:50:00;;;;;;;2.20;0.93;;;;;;;15.29;39.72;100187.69;4994202;28;20026;-57
2021/05/20 23:52:26;;;;;;;2.08;1.05;;;;;;;15.44;40.34;100191.38;4994584;28;20431;-58
2021/05/20 23:54:52;;;;;;;1.60;0.80;;;;;;;15.27;45.45;100187.75;4994084;28;20038;-58
2021/05/20 23:57:17;;;;;;;1.98;0.85;;;;;;;14.96;45.28;100178.59;4994304;28;20046;-58
2021/05/20 23:59:43;;;;;;;2.13;0.70;;;;;;;15.14;44.73;100176.91;5009383;28;20108;-58
